Terminal Aerodrome Forecast
Issued by NWS Greer, SC

Home | Current Version | Previous Version | Text Only | Print | Product List | Glossary On
Versions: 1 2 3 4 5 6 7 8 9 10 11 12 13 14 15 16 17 18 19 20
000
FTUS42 KGSP 240117 AAA
TAFAVL
TAF AMD
KAVL 240117Z 2401/2424 36004KT P6SM FEW100
     FM240900 03005KT 3SM BR SCT050
     FM241300 35006KT P6SM BKN050
     FM241800 36010G15KT P6SM SCT050=

USA.gov is the U.S. government's official web portal to all federal, state and local government web resources and services.